Time;durP1;ratioP1;P1;durP2;ratioP2;P2;SDS_P1;SDS_P2;PMS_P1;PMS_P2;Temp;Humidity;BMP_temperature;BMP_pressure;BME280_temperature;BME280_humidity;BME280_pressure;Samples;Min_cycle;Max_cycle;Signal;HPM_P1;HPM_P2
2023/12/09 00:02:18;;;;;;;0.20;0.20;;;;;;;;;;5071976;28;20242;-77
2023/12/09 00:04:45;;;;;;;0.20;0.20;;;;;;;;;;5084172;28;20204;-77
2023/12/09 00:07:13;;;;;;;0.20;0.20;;;;;;;;;;5071611;28;20256;-77
2023/12/09 00:09:39;;;;;;;0.20;0.20;;;;;;;;;;5083685;28;20215;-77
2023/12/09 00:12:06;;;;;;;0.20;0.20;;;;;;;;;;5072283;28;20236;-77
2023/12/09 00:14:32;;;;;;;0.20;0.20;;;;;;;;;;5083846;28;20211;-77
2023/12/09 00:16:59;;;;;;;0.20;0.20;;;;;;;;;;5072194;28;20300;-77
2023/12/09 00:19:25;;;;;;;0.20;0.20;;;;;;;;;;5083762;28;20245;-77
2023/12/09 00:21:51;;;;;;;0.20;0.20;;;;;;;;;;5072100;28;20240;-77
2023/12/09 00:24:19;;;;;;;0.20;0.20;;;;;;;;;;5083298;28;20206;-77
2023/12/09 00:26:46;;;;;;;0.20;0.20;;;;;;;;;;5071999;28;20263;-77
2023/12/09 00:29:12;;;;;;;0.20;0.20;;;;;;;;;;5083263;28;20404;-77
2023/12/09 00:31:38;;;;;;;0.20;0.20;;;;;;;;;;5072449;28;20580;-77
2023/12/09 00:34:06;;;;;;;0.20;0.20;;;;;;;;;;5083142;28;20453;-77
2023/12/09 00:36:32;;;;;;;0.20;0.20;;;;;;;;;;5072379;28;20241;-77
2023/12/09 00:38:59;;;;;;;0.20;0.20;;;;;;;;;;5083434;28;20270;-77
2023/12/09 00:41:26;;;;;;;0.20;0.20;;;;;;;;;;5072241;28;20307;-77
2023/12/09 00:43:53;;;;;;;0.20;0.20;;;;;;;;;;5083291;28;20228;-77
2023/12/09 00:46:21;;;;;;;0.20;0.20;;;;;;;;;;5072553;28;20468;-77
2023/12/09 00:48:47;;;;;;;0.20;0.20;;;;;;;;;;5082838;28;20205;-78
2023/12/09 00:51:14;;;;;;;0.20;0.20;;;;;;;;;;5072423;28;20295;-78
2023/12/09 00:53:40;;;;;;;0.20;0.20;;;;;;;;;;5082794;28;20206;-77
2023/12/09 00:56:07;;;;;;;0.10;0.10;;;;;;;;;;5072386;28;20240;-76
2023/12/09 00:58:34;;;;;;;0.20;0.20;;;;;;;;;;5082984;28;20436;-77
2023/12/09 01:01:01;;;;;;;0.20;0.20;;;;;;;;;;5072343;28;20307;-77
2023/12/09 01:03:27;;;;;;;0.20;0.20;;;;;;;;;;5082389;28;20212;-77
2023/12/09 01:05:54;;;;;;;0.20;0.20;;;;;;;;;;5072432;28;20311;-77
2023/12/09 01:08:20;;;;;;;0.20;0.20;;;;;;;;;;5082764;28;20403;-77
2023/12/09 01:10:54;;;;;;;0.20;0.20;;;;;;;;;;5072407;28;20311;-76
2023/12/09 01:13:21;;;;;;;0.20;0.20;;;;;;;;;;5082298;28;20215;-77
2023/12/09 01:15:48;;;;;;;0.20;0.20;;;;;;;;;;5072415;28;20543;-77
2023/12/09 01:18:15;;;;;;;0.20;0.20;;;;;;;;;;5082799;28;20203;-77
2023/12/09 01:20:41;;;;;;;0.20;0.20;;;;;;;;;;5076243;28;20270;-77
2023/12/09 01:23:08;;;;;;;0.20;0.20;;;;;;;;;;5086306;28;20204;-77
2023/12/09 01:25:34;;;;;;;0.20;0.20;;;;;;;;;;5076102;28;20441;-77
2023/12/09 01:28:01;;;;;;;0.20;0.20;;;;;;;;;;5086217;28;20192;-77
2023/12/09 01:30:27;;;;;;;0.20;0.20;;;;;;;;;;5076407;28;20235;-77
2023/12/09 01:32:55;;;;;;;0.20;0.20;;;;;;;;;;5086520;28;20237;-77
2023/12/09 01:35:21;;;;;;;0.20;0.20;;;;;;;;;;5075894;28;20240;-77
2023/12/09 01:37:48;;;;;;;0.20;0.20;;;;;;;;;;5086206;28;20230;-77
2023/12/09 01:40:14;;;;;;;0.30;0.30;;;;;;;;;;5076143;28;20227;-77
2023/12/09 01:42:41;;;;;;;0.20;0.20;;;;;;;;;;5086170;28;20383;-77
2023/12/09 01:45:07;;;;;;;0.20;0.20;;;;;;;;;;5086612;28;20452;-76
2023/12/09 01:47:35;;;;;;;0.20;0.20;;;;;;;;;;5058598;28;20216;-77
2023/12/09 01:50:03;;;;;;;0.20;0.20;;;;;;;;;;5086259;28;20203;-78
2023/12/09 01:52:31;;;;;;;0.20;0.20;;;;;;;;;;5074703;28;20244;-78
2023/12/09 01:54:58;;;;;;;0.20;0.20;;;;;;;;;;5086496;28;20400;-77
2023/12/09 01:57:24;;;;;;;0.20;0.20;;;;;;;;;;5074612;28;20269;-78
2023/12/09 01:59:51;;;;;;;0.20;0.20;;;;;;;;;;5086084;28;20212;-78
2023/12/09 02:02:17;;;;;;;0.20;0.20;;;;;;;;;;5074461;28;20307;-77
2023/12/09 02:04:44;;;;;;;0.30;0.30;;;;;;;;;;5086300;28;20203;-77
2023/12/09 02:07:11;;;;;;;0.20;0.20;;;;;;;;;;5074335;28;20482;-77
2023/12/09 02:09:39;;;;;;;0.20;0.20;;;;;;;;;;5085886;28;20278;-78
2023/12/09 02:12:06;;;;;;;0.20;0.20;;;;;;;;;;5074429;28;20302;-77
2023/12/09 02:14:36;;;;;;;0.20;0.20;;;;;;;;;;5085876;28;20226;-78
2023/12/09 02:17:04;;;;;;;0.20;0.20;;;;;;;;;;5074219;28;20257;-77
2023/12/09 02:19:31;;;;;;;0.20;0.20;;;;;;;;;;5085681;28;20244;-77
2023/12/09 02:22:01;;;;;;;0.20;0.20;;;;;;;;;;5073986;28;20246;-78
2023/12/09 02:24:29;;;;;;;0.20;0.20;;;;;;;;;;5085363;28;20231;-77
2023/12/09 02:26:58;;;;;;;0.20;0.20;;;;;;;;;;5073934;28;20319;-77
2023/12/09 02:29:25;;;;;;;0.20;0.20;;;;;;;;;;5085595;28;20241;-78
2023/12/09 02:31:52;;;;;;;0.20;0.20;;;;;;;;;;5073381;28;20294;-78
2023/12/09 02:34:19;;;;;;;0.20;0.20;;;;;;;;;;5085107;28;20195;-77
2023/12/09 02:36:46;;;;;;;0.20;0.20;;;;;;;;;;5073879;28;20312;-78
2023/12/09 02:39:13;;;;;;;0.20;0.20;;;;;;;;;;5085211;28;20268;-78
2023/12/09 02:41:41;;;;;;;0.20;0.20;;;;;;;;;;5073846;28;20301;-78
2023/12/09 02:44:08;;;;;;;0.20;0.20;;;;;;;;;;5084834;28;20207;-77
2023/12/09 02:46:34;;;;;;;0.20;0.20;;;;;;;;;;5074034;28;20239;-78
2023/12/09 02:49:01;;;;;;;0.20;0.20;;;;;;;;;;5084965;28;20272;-77
2023/12/09 02:51:27;;;;;;;0.20;0.20;;;;;;;;;;5073930;28;20302;-78
2023/12/09 02:53:54;;;;;;;0.20;0.20;;;;;;;;;;5084874;28;20219;-78
2023/12/09 02:56:20;;;;;;;0.20;0.20;;;;;;;;;;5073928;28;20238;-78
2023/12/09 02:58:48;;;;;;;0.20;0.20;;;;;;;;;;5084349;28;20248;-78
2023/12/09 03:01:14;;;;;;;0.20;0.20;;;;;;;;;;5074102;28;20488;-78
2023/12/09 03:03:41;;;;;;;0.20;0.20;;;;;;;;;;5084326;28;20219;-78
2023/12/09 03:06:07;;;;;;;0.20;0.20;;;;;;;;;;5073696;28;20303;-78
2023/12/09 03:08:34;;;;;;;0.20;0.20;;;;;;;;;;5084395;28;20256;-77
2023/12/09 03:11:01;;;;;;;0.20;0.20;;;;;;;;;;5073720;28;20242;-78
2023/12/09 03:13:27;;;;;;;0.20;0.20;;;;;;;;;;5084060;28;20234;-78
2023/12/09 03:15:55;;;;;;;0.20;0.20;;;;;;;;;;5073739;28;20248;-77
2023/12/09 03:18:21;;;;;;;0.20;0.20;;;;;;;;;;5083939;28;20210;-78
2023/12/09 03:20:48;;;;;;;0.43;0.43;;;;;;;;;;5073560;28;20604;-78
2023/12/09 03:23:14;;;;;;;1.07;1.07;;;;;;;;;;5084029;28;20200;-78
2023/12/09 03:25:40;;;;;;;0.20;0.20;;;;;;;;;;5073559;28;20252;-78
2023/12/09 03:28:07;;;;;;;0.30;0.30;;;;;;;;;;5083902;28;20242;-77
2023/12/09 03:30:33;;;;;;;0.20;0.20;;;;;;;;;;5073718;28;20248;-78
2023/12/09 03:33:01;;;;;;;0.20;0.20;;;;;;;;;;5083447;28;20199;-78
2023/12/09 03:35:28;;;;;;;0.20;0.20;;;;;;;;;;5073738;28;20262;-78
2023/12/09 03:37:54;;;;;;;0.43;0.43;;;;;;;;;;5083661;28;20259;-78
2023/12/09 03:40:20;;;;;;;0.20;0.20;;;;;;;;;;5073305;28;20225;-78
2023/12/09 03:42:47;;;;;;;0.20;0.20;;;;;;;;;;5082451;28;20513;-77
2023/12/09 03:45:13;;;;;;;0.20;0.20;;;;;;;;;;5073387;28;20205;-77
2023/12/09 03:47:39;;;;;;;0.20;0.20;;;;;;;;;;5083355;28;20230;-77
2023/12/09 03:50:08;;;;;;;0.20;0.20;;;;;;;;;;5084007;28;20205;-78
2023/12/09 03:52:34;;;;;;;0.20;0.20;;;;;;;;;;5056419;28;20209;-78
2023/12/09 03:55:00;;;;;;;0.20;0.20;;;;;;;;;;5083846;28;20232;-78
2023/12/09 03:57:26;;;;;;;0.20;0.20;;;;;;;;;;5072774;28;20251;-78
2023/12/09 03:59:53;;;;;;;0.20;0.20;;;;;;;;;;5083940;28;20205;-77
2023/12/09 04:02:19;;;;;;;0.20;0.20;;;;;;;;;;5072137;28;20234;-77
2023/12/09 04:04:45;;;;;;;0.20;0.20;;;;;;;;;;5083897;28;20223;-77
2023/12/09 04:07:13;;;;;;;0.20;0.20;;;;;;;;;;5072211;28;20239;-78
2023/12/09 04:09:39;;;;;;;0.20;0.20;;;;;;;;;;5083793;28;20283;-77
2023/12/09 04:12:06;;;;;;;0.50;0.50;;;;;;;;;;5072099;28;20254;-78
2023/12/09 04:14:32;;;;;;;0.20;0.20;;;;;;;;;;5083668;28;20270;-78
2023/12/09 04:16:59;;;;;;;0.20;0.20;;;;;;;;;;5072182;28;20240;-78
2023/12/09 04:19:25;;;;;;;0.20;0.20;;;;;;;;;;5083401;28;20219;-78
2023/12/09 04:21:51;;;;;;;0.20;0.20;;;;;;;;;;5072099;28;20505;-77
2023/12/09 04:24:19;;;;;;;0.20;0.20;;;;;;;;;;5083237;28;20204;-78
2023/12/09 04:26:46;;;;;;;0.20;0.20;;;;;;;;;;5072136;28;20301;-78
2023/12/09 04:29:12;;;;;;;0.20;0.20;;;;;;;;;;5083321;28;20234;-77
2023/12/09 04:31:39;;;;;;;0.20;0.20;;;;;;;;;;5073027;28;20235;-79
2023/12/09 04:34:05;;;;;;;0.20;0.20;;;;;;;;;;5085025;28;20206;-78
2023/12/09 04:36:32;;;;;;;0.20;0.20;;;;;;;;;;5072364;28;20243;-78
2023/12/09 04:38:58;;;;;;;0.20;0.20;;;;;;;;;;5083339;28;20267;-77
2023/12/09 04:41:27;;;;;;;0.93;0.93;;;;;;;;;;5072378;28;20274;-78
2023/12/09 04:43:53;;;;;;;0.23;0.23;;;;;;;;;;5083432;28;20211;-77
2023/12/09 04:46:19;;;;;;;0.20;0.20;;;;;;;;;;5072014;28;20255;-78
2023/12/09 04:48:46;;;;;;;0.20;0.20;;;;;;;;;;5083280;28;20235;-78
2023/12/09 04:51:12;;;;;;;0.20;0.20;;;;;;;;;;5072284;28;20247;-77
2023/12/09 04:53:39;;;;;;;0.20;0.20;;;;;;;;;;5083857;28;20501;-77
2023/12/09 04:56:06;;;;;;;0.20;0.20;;;;;;;;;;5076262;28;20303;-77
2023/12/09 04:58:34;;;;;;;0.20;0.20;;;;;;;;;;5086751;28;20213;-78
2023/12/09 05:01:01;;;;;;;0.20;0.20;;;;;;;;;;5076046;28;20243;-78
2023/12/09 05:03:28;;;;;;;0.20;0.20;;;;;;;;;;5086443;28;20462;-78
2023/12/09 05:05:54;;;;;;;0.20;0.20;;;;;;;;;;5076072;28;20255;-78
2023/12/09 05:08:20;;;;;;;0.20;0.20;;;;;;;;;;5086230;28;20591;-78
2023/12/09 05:10:51;;;;;;;0.20;0.20;;;;;;;;;;5076257;28;20238;-78
2023/12/09 05:13:17;;;;;;;0.20;0.20;;;;;;;;;;5086432;28;20513;-78
2023/12/09 05:15:45;;;;;;;0.20;0.20;;;;;;;;;;5075964;28;20512;-78
2023/12/09 05:18:11;;;;;;;0.20;0.20;;;;;;;;;;5086530;28;20265;-78
2023/12/09 05:20:38;;;;;;;0.20;0.20;;;;;;;;;;5076134;28;20413;-78
2023/12/09 05:23:05;;;;;;;0.20;0.20;;;;;;;;;;5086044;28;20229;-78
2023/12/09 05:25:31;;;;;;;0.20;0.20;;;;;;;;;;5076062;28;20291;-79
2023/12/09 05:27:57;;;;;;;0.20;0.20;;;;;;;;;;5085840;28;20224;-78
2023/12/09 05:30:24;;;;;;;0.20;0.20;;;;;;;;;;5076079;28;20236;-77
2023/12/09 05:32:52;;;;;;;0.20;0.20;;;;;;;;;;5086000;28;20351;-78
2023/12/09 05:35:18;;;;;;;0.20;0.20;;;;;;;;;;5076040;28;20283;-78
2023/12/09 05:37:45;;;;;;;0.20;0.20;;;;;;;;;;5085871;28;20265;-77
2023/12/09 05:40:12;;;;;;;0.20;0.20;;;;;;;;;;5076105;28;20266;-78
2023/12/09 05:42:38;;;;;;;0.20;0.20;;;;;;;;;;5085442;28;20235;-78
2023/12/09 05:45:05;;;;;;;0.20;0.20;;;;;;;;;;5086365;28;20234;-78
2023/12/09 05:47:32;;;;;;;0.20;0.20;;;;;;;;;;5075061;28;20239;-78
2023/12/09 05:49:59;;;;;;;0.20;0.20;;;;;;;;;;5086652;28;20258;-78
2023/12/09 05:52:26;;;;;;;0.20;0.20;;;;;;;;;;5074783;28;20258;-78
2023/12/09 05:54:52;;;;;;;0.20;0.20;;;;;;;;;;5086235;28;20307;-78
2023/12/09 05:57:19;;;;;;;0.20;0.20;;;;;;;;;;5074553;28;20251;-78
2023/12/09 05:59:45;;;;;;;0.20;0.20;;;;;;;;;;5086319;28;20232;-77
2023/12/09 06:02:11;;;;;;;0.20;0.20;;;;;;;;;;5074248;28;20511;-77
2023/12/09 06:04:38;;;;;;;0.20;0.20;;;;;;;;;;5085779;28;20245;-77
2023/12/09 06:07:07;;;;;;;0.20;0.20;;;;;;;;;;5073642;28;20240;-78
2023/12/09 06:09:34;;;;;;;0.20;0.20;;;;;;;;;;5085926;28;20207;-78
2023/12/09 06:12:00;;;;;;;0.20;0.20;;;;;;;;;;5074206;28;20255;-78
2023/12/09 06:14:26;;;;;;;0.20;0.20;;;;;;;;;;5086114;28;20212;-78
2023/12/09 06:16:53;;;;;;;0.20;0.20;;;;;;;;;;5074457;28;20255;-78
2023/12/09 06:19:19;;;;;;;0.20;0.20;;;;;;;;;;5085577;28;20196;-78
2023/12/09 06:21:46;;;;;;;0.20;0.20;;;;;;;;;;5074041;28;20295;-78
2023/12/09 06:24:14;;;;;;;0.20;0.20;;;;;;;;;;5085735;28;20211;-78
2023/12/09 06:26:44;;;;;;;0.20;0.20;;;;;;;;;;5074103;28;20255;-78
2023/12/09 06:29:12;;;;;;;0.20;0.20;;;;;;;;;;5085409;28;20257;-78
2023/12/09 06:31:39;;;;;;;0.20;0.20;;;;;;;;;;5074377;28;20240;-78
2023/12/09 06:34:05;;;;;;;0.20;0.20;;;;;;;;;;5085320;28;20295;-78
2023/12/09 06:36:32;;;;;;;0.20;0.20;;;;;;;;;;5074262;28;20637;-78
2023/12/09 06:38:58;;;;;;;0.13;0.13;;;;;;;;;;5085128;28;20266;-77
2023/12/09 06:41:26;;;;;;;0.20;0.20;;;;;;;;;;5074280;28;20304;-77
2023/12/09 06:43:52;;;;;;;0.20;0.20;;;;;;;;;;5084987;28;20223;-79
2023/12/09 06:46:18;;;;;;;0.20;0.20;;;;;;;;;;5074103;28;20257;-78
2023/12/09 06:48:45;;;;;;;0.20;0.20;;;;;;;;;;5084724;28;20227;-78
2023/12/09 06:51:14;;;;;;;0.20;0.20;;;;;;;;;;5073883;28;20601;-78
2023/12/09 06:53:40;;;;;;;0.20;0.20;;;;;;;;;;5084559;28;20229;-78
2023/12/09 06:56:08;;;;;;;0.13;0.13;;;;;;;;;;5074077;28;20302;-78
2023/12/09 06:58:36;;;;;;;0.20;0.20;;;;;;;;;;5084560;28;20254;-78
2023/12/09 07:01:02;;;;;;;0.20;0.20;;;;;;;;;;5074321;28;20240;-78
2023/12/09 07:03:29;;;;;;;0.10;0.10;;;;;;;;;;5084284;28;20224;-78
2023/12/09 07:05:55;;;;;;;0.20;0.20;;;;;;;;;;5073840;28;20275;-78
2023/12/09 07:08:22;;;;;;;0.20;0.20;;;;;;;;;;5084477;28;20199;-78
2023/12/09 07:10:51;;;;;;;0.20;0.20;;;;;;;;;;5073956;28;20330;-78
2023/12/09 07:13:18;;;;;;;0.20;0.20;;;;;;;;;;5084040;28;20201;-78
2023/12/09 07:15:45;;;;;;;0.20;0.20;;;;;;;;;;5073574;28;20244;-78
2023/12/09 07:18:12;;;;;;;0.20;0.20;;;;;;;;;;5083710;28;20455;-78
2023/12/09 07:20:38;;;;;;;0.20;0.20;;;;;;;;;;5073949;28;20239;-78
2023/12/09 07:23:05;;;;;;;0.20;0.20;;;;;;;;;;5083716;28;20281;-78
2023/12/09 07:25:31;;;;;;;0.20;0.20;;;;;;;;;;5073797;28;20260;-78
2023/12/09 07:27:57;;;;;;;0.20;0.20;;;;;;;;;;5083860;28;20382;-77
2023/12/09 07:30:24;;;;;;;0.20;0.20;;;;;;;;;;5073902;28;20271;-78
2023/12/09 07:32:51;;;;;;;0.20;0.20;;;;;;;;;;5083610;28;20229;-78
2023/12/09 07:35:18;;;;;;;0.20;0.20;;;;;;;;;;5073694;28;20212;-78
2023/12/09 07:37:44;;;;;;;0.20;0.20;;;;;;;;;;5083453;28;20263;-78
2023/12/09 07:40:12;;;;;;;0.10;0.10;;;;;;;;;;5073850;28;20256;-78
2023/12/09 07:42:38;;;;;;;0.10;0.10;;;;;;;;;;5082854;28;20216;-78
2023/12/09 07:45:05;;;;;;;0.20;0.20;;;;;;;;;;5084059;28;20657;-78
2023/12/09 07:47:32;;;;;;;0.20;0.20;;;;;;;;;;5072271;28;20256;-79
2023/12/09 07:50:00;;;;;;;0.20;0.20;;;;;;;;;;5084089;28;20197;-78
2023/12/09 07:52:26;;;;;;;0.20;0.20;;;;;;;;;;5072345;28;20247;-78
2023/12/09 07:54:53;;;;;;;0.20;0.20;;;;;;;;;;5083900;28;20205;-78
2023/12/09 07:57:20;;;;;;;0.10;0.10;;;;;;;;;;5072173;28;20302;-78
2023/12/09 07:59:46;;;;;;;0.20;0.20;;;;;;;;;;5084125;28;20249;-78
2023/12/09 08:02:13;;;;;;;0.20;0.20;;;;;;;;;;5071968;28;20240;-78
2023/12/09 08:04:39;;;;;;;0.20;0.20;;;;;;;;;;5083863;28;20214;-77
2023/12/09 08:07:07;;;;;;;0.20;0.20;;;;;;;;;;5072171;28;20260;-77
2023/12/09 08:09:33;;;;;;;0.20;0.20;;;;;;;;;;5084371;28;20279;-78
2023/12/09 08:12:00;;;;;;;0.10;0.10;;;;;;;;;;5072048;28;20265;-78
2023/12/09 08:14:26;;;;;;;0.10;0.10;;;;;;;;;;5083655;28;20205;-78
2023/12/09 08:16:52;;;;;;;0.20;0.20;;;;;;;;;;5072080;28;20306;-78
2023/12/09 08:19:19;;;;;;;0.20;0.20;;;;;;;;;;5083440;28;20266;-78
2023/12/09 08:21:45;;;;;;;0.20;0.20;;;;;;;;;;5072253;28;20241;-78
2023/12/09 08:24:13;;;;;;;0.20;0.20;;;;;;;;;;5083216;28;20289;-79
2023/12/09 08:26:40;;;;;;;0.20;0.20;;;;;;;;;;5072248;28;20282;-78
2023/12/09 08:29:11;;;;;;;0.20;0.20;;;;;;;;;;5083125;28;20205;-77
2023/12/09 08:31:37;;;;;;;0.20;0.20;;;;;;;;;;5072336;28;20260;-78
2023/12/09 08:34:04;;;;;;;0.20;0.20;;;;;;;;;;5083722;28;20209;-78
2023/12/09 08:36:30;;;;;;;0.20;0.20;;;;;;;;;;5072959;28;20248;-79
2023/12/09 08:38:57;;;;;;;0.20;0.20;;;;;;;;;;5083721;28;20196;-78
2023/12/09 08:41:24;;;;;;;0.20;0.20;;;;;;;;;;5072879;28;20264;-81
2023/12/09 08:43:52;;;;;;;0.20;0.20;;;;;;;;;;5083162;28;20223;-79
2023/12/09 08:46:19;;;;;;;0.20;0.20;;;;;;;;;;5072663;28;20247;-79
2023/12/09 08:48:45;;;;;;;0.20;0.20;;;;;;;;;;5083496;28;20205;-82
2023/12/09 08:51:11;;;;;;;0.20;0.20;;;;;;;;;;5072768;28;20247;-77
2023/12/09 08:53:38;;;;;;;0.20;0.20;;;;;;;;;;5083806;28;20235;-81
2023/12/09 08:56:05;;;;;;;0.20;0.20;;;;;;;;;;5072686;28;20318;-79
2023/12/09 08:58:33;;;;;;;0.20;0.20;;;;;;;;;;5083232;28;20428;-81
2023/12/09 09:00:59;;;;;;;0.20;0.20;;;;;;;;;;5072644;28;20240;-81
2023/12/09 09:03:26;;;;;;;0.20;0.20;;;;;;;;;;5082847;28;20473;-80
2023/12/09 09:05:52;;;;;;;0.20;0.20;;;;;;;;;;5072541;28;20436;-81
2023/12/09 09:08:19;;;;;;;0.20;0.20;;;;;;;;;;5082597;28;20247;-81
2023/12/09 09:10:45;;;;;;;0.20;0.20;;;;;;;;;;5072663;28;20244;-81
2023/12/09 09:13:12;;;;;;;0.20;0.20;;;;;;;;;;5082585;28;20216;-81
2023/12/09 09:15:40;;;;;;;0.20;0.20;;;;;;;;;;5072538;28;20245;-80
2023/12/09 09:18:07;;;;;;;0.20;0.20;;;;;;;;;;5082656;28;20213;-81
2023/12/09 09:20:33;;;;;;;0.20;0.20;;;;;;;;;;5072575;28;20243;-81
2023/12/09 09:23:00;;;;;;;0.20;0.20;;;;;;;;;;5082149;28;20217;-80
2023/12/09 09:25:26;;;;;;;0.10;0.10;;;;;;;;;;5072748;28;20522;-80
2023/12/09 09:27:53;;;;;;;0.10;0.10;;;;;;;;;;5082341;28;20193;-81
2023/12/09 09:30:22;;;;;;;0.20;0.20;;;;;;;;;;5072510;28;20230;-77
2023/12/09 09:32:49;;;;;;;0.10;0.10;;;;;;;;;;5082344;28;20434;-78
2023/12/09 09:35:16;;;;;;;0.10;0.10;;;;;;;;;;5072633;28;20247;-78
2023/12/09 09:37:42;;;;;;;0.10;0.10;;;;;;;;;;5082010;28;20209;-78
2023/12/09 09:40:11;;;;;;;0.10;0.10;;;;;;;;;;5083107;28;20300;-77
2023/12/09 09:42:38;;;;;;;0.10;0.10;;;;;;;;;;5058221;28;20210;-77
2023/12/09 09:45:08;;;;;;;0.20;0.20;;;;;;;;;;5086258;28;20289;-76
2023/12/09 09:47:37;;;;;;;0.10;0.10;;;;;;;;;;5058143;28;20203;-76
2023/12/09 09:50:05;;;;;;;0.10;0.10;;;;;;;;;;5086464;28;20201;-77
2023/12/09 09:52:34;;;;;;;0.10;0.10;;;;;;;;;;5074470;28;20267;-76
2023/12/09 09:55:01;;;;;;;0.10;0.10;;;;;;;;;;5086333;28;20245;-76
2023/12/09 09:57:27;;;;;;;0.10;0.10;;;;;;;;;;5074514;28;20305;-77
2023/12/09 09:59:56;;;;;;;0.10;0.10;;;;;;;;;;5086231;28;20212;-77
2023/12/09 10:02:23;;;;;;;0.20;0.20;;;;;;;;;;5074286;28;20306;-77
2023/12/09 10:04:49;;;;;;;0.10;0.10;;;;;;;;;;5086052;28;20226;-76
2023/12/09 10:07:17;;;;;;;0.10;0.10;;;;;;;;;;5074338;28;20237;-77
2023/12/09 10:09:44;;;;;;;0.10;0.10;;;;;;;;;;5086108;28;20210;-77
2023/12/09 10:12:10;;;;;;;0.10;0.10;;;;;;;;;;5074244;28;20248;-76
2023/12/09 10:14:36;;;;;;;0.10;0.10;;;;;;;;;;5085819;28;20232;-77
2023/12/09 10:17:03;;;;;;;0.10;0.10;;;;;;;;;;5074115;28;20239;-77
2023/12/09 10:19:30;;;;;;;0.10;0.10;;;;;;;;;;5085779;28;20227;-76
2023/12/09 10:21:56;;;;;;;0.10;0.10;;;;;;;;;;5074175;28;20281;-77
2023/12/09 10:24:24;;;;;;;0.10;0.10;;;;;;;;;;5085408;28;20225;-77
2023/12/09 10:26:50;;;;;;;0.10;0.10;;;;;;;;;;5073958;28;20258;-77
2023/12/09 10:29:17;;;;;;;0.10;0.10;;;;;;;;;;5085333;28;20244;-77
2023/12/09 10:31:44;;;;;;;0.10;0.10;;;;;;;;;;5073970;28;20264;-77
2023/12/09 10:34:11;;;;;;;0.10;0.10;;;;;;;;;;5085391;28;20249;-76
2023/12/09 10:36:37;;;;;;;0.10;0.10;;;;;;;;;;5074180;28;20255;-76
2023/12/09 10:39:05;;;;;;;0.10;0.10;;;;;;;;;;5085349;28;20245;-76
2023/12/09 10:41:33;;;;;;;0.10;0.10;;;;;;;;;;5073918;28;20239;-76
2023/12/09 10:44:02;;;;;;;0.10;0.10;;;;;;;;;;5084823;28;20281;-76
2023/12/09 10:46:28;;;;;;;0.10;0.10;;;;;;;;;;5073949;28;20250;-76
2023/12/09 10:48:55;;;;;;;0.10;0.10;;;;;;;;;;5085140;28;20229;-76
2023/12/09 10:51:23;;;;;;;0.10;0.10;;;;;;;;;;5073475;28;20246;-76
2023/12/09 10:53:49;;;;;;;0.10;0.10;;;;;;;;;;5084877;28;20240;-76
2023/12/09 10:56:15;;;;;;;0.10;0.10;;;;;;;;;;5074095;28;20251;-76
2023/12/09 10:58:45;;;;;;;0.17;0.17;;;;;;;;;;5084113;28;20210;-76
2023/12/09 11:01:12;;;;;;;0.10;0.10;;;;;;;;;;5073388;28;20258;-76
2023/12/09 11:03:39;;;;;;;0.10;0.10;;;;;;;;;;5084192;28;20257;-76
2023/12/09 11:06:06;;;;;;;0.10;0.10;;;;;;;;;;5073835;28;20248;-77
2023/12/09 11:08:35;;;;;;;0.10;0.10;;;;;;;;;;5084484;28;20250;-76
2023/12/09 11:11:05;;;;;;;0.10;0.10;;;;;;;;;;5073819;28;20238;-76
2023/12/09 11:13:33;;;;;;;0.10;0.10;;;;;;;;;;5084120;28;20277;-76
2023/12/09 11:16:10;;;;;;;0.10;0.10;;;;;;;;;;5073525;28;20397;-76
2023/12/09 11:18:36;;;;;;;0.30;0.30;;;;;;;;;;5084323;28;20388;-77
2023/12/09 11:21:03;;;;;;;0.10;0.10;;;;;;;;;;5073663;28;20479;-76
2023/12/09 11:23:29;;;;;;;0.10;0.10;;;;;;;;;;5084230;28;20224;-76
2023/12/09 11:25:56;;;;;;;0.10;0.10;;;;;;;;;;5073415;28;20304;-76
2023/12/09 11:28:22;;;;;;;0.10;0.10;;;;;;;;;;5084110;28;20396;-76
2023/12/09 11:30:48;;;;;;;0.10;0.10;;;;;;;;;;5073543;28;20260;-76
2023/12/09 11:33:16;;;;;;;0.10;0.10;;;;;;;;;;5083924;28;20237;-76
2023/12/09 11:35:45;;;;;;;0.10;0.10;;;;;;;;;;5073470;28;20239;-75
2023/12/09 11:38:12;;;;;;;0.10;0.10;;;;;;;;;;5083711;28;20203;-76
2023/12/09 11:40:39;;;;;;;0.13;0.13;;;;;;;;;;5073279;28;20256;-75
2023/12/09 11:43:06;;;;;;;0.10;0.10;;;;;;;;;;5083299;28;20243;-77
2023/12/09 11:45:32;;;;;;;0.10;0.10;;;;;;;;;;5073477;28;20261;-76
2023/12/09 11:48:00;;;;;;;0.10;0.10;;;;;;;;;;5083147;28;20255;-76
2023/12/09 11:50:29;;;;;;;0.10;0.10;;;;;;;;;;5073162;28;20274;-76
2023/12/09 11:52:56;;;;;;;0.10;0.10;;;;;;;;;;5083098;28;20191;-77
2023/12/09 11:55:22;;;;;;;0.10;0.10;;;;;;;;;;5073338;28;20373;-76
2023/12/09 11:57:48;;;;;;;0.17;0.17;;;;;;;;;;5083036;28;20263;-77
2023/12/09 12:00:15;;;;;;;0.10;0.10;;;;;;;;;;5073009;28;20204;-76
2023/12/09 12:02:42;;;;;;;0.10;0.10;;;;;;;;;;5082539;28;20258;-76
2023/12/09 12:05:09;;;;;;;0.10;0.10;;;;;;;;;;5083092;28;20238;-76
2023/12/09 12:07:38;;;;;;;0.10;0.10;;;;;;;;;;5055570;28;20205;-77
2023/12/09 12:10:06;;;;;;;0.10;0.10;;;;;;;;;;5083770;28;20219;-76
2023/12/09 12:12:32;;;;;;;0.17;0.17;;;;;;;;;;5072178;28;20308;-77
2023/12/09 12:14:59;;;;;;;0.20;0.20;;;;;;;;;;5083691;28;20207;-76
2023/12/09 12:17:25;;;;;;;0.10;0.10;;;;;;;;;;5072050;28;20493;-76
2023/12/09 12:19:52;;;;;;;0.10;0.10;;;;;;;;;;5083582;28;20204;-77
2023/12/09 12:22:18;;;;;;;0.10;0.10;;;;;;;;;;5071914;28;20325;-76
2023/12/09 12:24:46;;;;;;;0.13;0.13;;;;;;;;;;5083798;28;20227;-76
2023/12/09 12:27:13;;;;;;;0.10;0.10;;;;;;;;;;5071854;28;20316;-76
2023/12/09 12:29:40;;;;;;;0.20;0.20;;;;;;;;;;5083644;28;20484;-76
2023/12/09 12:32:06;;;;;;;0.10;0.10;;;;;;;;;;5072013;28;20420;-76
2023/12/09 12:34:33;;;;;;;0.20;0.20;;;;;;;;;;5083524;28;20203;-77
2023/12/09 12:37:00;;;;;;;0.17;0.17;;;;;;;;;;5071878;28;20245;-76
2023/12/09 12:39:26;;;;;;;0.10;0.10;;;;;;;;;;5083519;28;20203;-76
2023/12/09 12:41:54;;;;;;;0.20;0.20;;;;;;;;;;5071934;28;20245;-77
2023/12/09 12:44:21;;;;;;;0.10;0.10;;;;;;;;;;5083132;28;20227;-76
2023/12/09 12:46:48;;;;;;;0.10;0.10;;;;;;;;;;5071889;28;20320;-76
2023/12/09 12:49:14;;;;;;;0.10;0.10;;;;;;;;;;5083056;28;20206;-76
2023/12/09 12:51:41;;;;;;;0.10;0.10;;;;;;;;;;5072058;28;20427;-77
2023/12/09 12:54:07;;;;;;;0.10;0.10;;;;;;;;;;5083024;28;20247;-76
2023/12/09 12:56:34;;;;;;;0.10;0.10;;;;;;;;;;5072079;28;20280;-76
2023/12/09 12:59:02;;;;;;;0.10;0.10;;;;;;;;;;5083057;28;20209;-76
2023/12/09 13:01:28;;;;;;;0.10;0.10;;;;;;;;;;5072036;28;20246;-76
2023/12/09 13:03:55;;;;;;;0.10;0.10;;;;;;;;;;5082793;28;20410;-76
2023/12/09 13:06:22;;;;;;;0.10;0.10;;;;;;;;;;5071930;28;20248;-76
2023/12/09 13:08:48;;;;;;;0.10;0.10;;;;;;;;;;5082932;28;20205;-78
2023/12/09 13:11:15;;;;;;;0.20;0.20;;;;;;;;;;5072229;28;20293;-77
2023/12/09 13:13:41;;;;;;;0.20;0.20;;;;;;;;;;5082770;28;20573;-77
2023/12/09 13:16:09;;;;;;;0.10;0.10;;;;;;;;;;5075215;28;20242;-77
2023/12/09 13:18:36;;;;;;;0.10;0.10;;;;;;;;;;5086287;28;20207;-77
2023/12/09 13:21:03;;;;;;;0.13;0.13;;;;;;;;;;5075854;28;20289;-77
2023/12/09 13:23:30;;;;;;;0.10;0.10;;;;;;;;;;5086093;28;20203;-78
2023/12/09 13:25:56;;;;;;;0.10;0.10;;;;;;;;;;5075754;28;20262;-77
2023/12/09 13:28:24;;;;;;;0.10;0.10;;;;;;;;;;5086063;28;20207;-77
2023/12/09 13:30:50;;;;;;;0.20;0.20;;;;;;;;;;5075806;28;20259;-78
2023/12/09 13:33:18;;;;;;;0.10;0.10;;;;;;;;;;5085885;28;20238;-77
2023/12/09 13:35:45;;;;;;;0.10;0.10;;;;;;;;;;5075771;28;20280;-78
2023/12/09 13:38:11;;;;;;;0.10;0.10;;;;;;;;;;5085842;28;20484;-77
2023/12/09 13:40:40;;;;;;;0.10;0.10;;;;;;;;;;5075618;28;20469;-77
2023/12/09 13:43:06;;;;;;;0.10;0.10;;;;;;;;;;5086187;28;20375;-78
2023/12/09 13:45:35;;;;;;;0.10;0.10;;;;;;;;;;5075395;28;20281;-77
2023/12/09 13:48:02;;;;;;;0.20;0.20;;;;;;;;;;5086075;28;20211;-77
2023/12/09 13:50:29;;;;;;;0.10;0.10;;;;;;;;;;5075834;28;20204;-77
2023/12/09 13:52:56;;;;;;;0.10;0.10;;;;;;;;;;5085735;28;20379;-77
2023/12/09 13:55:23;;;;;;;0.10;0.10;;;;;;;;;;5075527;28;20244;-77
2023/12/09 13:57:50;;;;;;;0.10;0.10;;;;;;;;;;5085632;28;20192;-78
2023/12/09 14:00:17;;;;;;;0.13;0.13;;;;;;;;;;5075684;28;20245;-77
2023/12/09 14:02:44;;;;;;;0.10;0.10;;;;;;;;;;5085296;28;20227;-78
2023/12/09 14:05:13;;;;;;;0.10;0.10;;;;;;;;;;5075416;28;20239;-76
2023/12/09 14:07:41;;;;;;;0.20;0.20;;;;;;;;;;5085072;28;20225;-77
2023/12/09 14:10:09;;;;;;;0.20;0.20;;;;;;;;;;5085817;28;20217;-77
2023/12/09 14:12:35;;;;;;;0.20;0.20;;;;;;;;;;5057823;28;20289;-77
2023/12/09 14:15:02;;;;;;;0.20;0.20;;;;;;;;;;5086224;28;20461;-77
2023/12/09 14:17:29;;;;;;;0.13;0.13;;;;;;;;;;5074447;28;20235;-77
2023/12/09 14:19:55;;;;;;;0.20;0.20;;;;;;;;;;5086169;28;20416;-79
2023/12/09 14:22:22;;;;;;;0.20;0.20;;;;;;;;;;5074459;28;20495;-82
2023/12/09 14:24:50;;;;;;;0.20;0.20;;;;;;;;;;5086353;28;20239;-80
2023/12/09 14:27:16;;;;;;;0.20;0.20;;;;;;;;;;5072996;28;20239;-79
2023/12/09 14:29:42;;;;;;;0.10;0.10;;;;;;;;;;5086488;28;20196;-76
2023/12/09 14:32:09;;;;;;;0.20;0.20;;;;;;;;;;5075439;28;20485;-75
2023/12/09 14:34:36;;;;;;;0.17;0.17;;;;;;;;;;5086274;28;20199;-77
2023/12/09 14:37:03;;;;;;;0.10;0.10;;;;;;;;;;5073804;28;20243;-75
2023/12/09 14:39:29;;;;;;;0.17;0.17;;;;;;;;;;5085698;28;20231;-76
2023/12/09 14:41:57;;;;;;;0.20;0.20;;;;;;;;;;5073903;28;20332;-80